createdAt,value
2023-08-15T00:01:57.763Z,20.43
2023-08-15T00:04:24.681Z,20.40
2023-08-15T00:06:51.400Z,20.36
2023-08-15T00:09:18.113Z,20.34
2023-08-15T00:11:44.873Z,20.24
2023-08-15T00:14:12.734Z,20.23
2023-08-15T00:16:39.547Z,20.16
2023-08-15T00:19:06.511Z,20.13
2023-08-15T00:21:33.360Z,20.08
2023-08-15T00:24:00.069Z,20.05
2023-08-15T00:26:26.994Z,20.05
2023-08-15T00:28:53.769Z,20.00
2023-08-15T00:31:20.575Z,20.03
2023-08-15T00:33:47.569Z,20.04
2023-08-15T00:36:14.413Z,20.04
2023-08-15T00:38:41.380Z,20.00
2023-08-15T00:41:08.689Z,19.94
2023-08-15T00:43:35.676Z,19.98
2023-08-15T00:46:04.414Z,19.82
2023-08-15T00:48:33.070Z,19.98
2023-08-15T00:51:02.698Z,19.91
2023-08-15T00:53:31.658Z,19.94
2023-08-15T00:55:59.283Z,19.82
2023-08-15T00:58:26.544Z,19.78
2023-08-15T01:00:53.401Z,19.87
2023-08-15T01:03:20.618Z,19.97
2023-08-15T01:05:48.890Z,19.97
2023-08-15T01:08:16.646Z,20.10
2023-08-15T01:10:44.515Z,20.03
2023-08-15T01:13:20.668Z,19.91
2023-08-15T01:15:51.795Z,19.85
2023-08-15T01:18:40.373Z,20.11
2023-08-15T01:21:07.861Z,20.10
2023-08-15T01:23:43.659Z,20.13
2023-08-15T01:26:11.380Z,20.02
2023-08-15T01:28:40.012Z,19.92
2023-08-15T01:31:14.228Z,19.99
2023-08-15T01:33:50.720Z,20.09
2023-08-15T01:36:24.967Z,19.79
2023-08-15T01:39:00.934Z,19.94
2023-08-15T01:41:33.102Z,20.04
2023-08-15T01:44:02.423Z,19.84
2023-08-15T01:46:29.527Z,20.02
2023-08-15T01:48:58.928Z,19.78
2023-08-15T01:51:27.111Z,20.03
2023-08-15T01:53:54.117Z,19.98
2023-08-15T01:56:20.898Z,20.15
2023-08-15T01:58:47.768Z,19.99
2023-08-15T02:01:15.464Z,20.05
2023-08-15T02:03:42.447Z,19.95
2023-08-15T02:06:10.394Z,20.16
2023-08-15T02:08:37.189Z,20.20
2023-08-15T02:11:04.087Z,19.96
2023-08-15T02:13:33.714Z,20.14
2023-08-15T02:16:01.408Z,19.87
2023-08-15T02:18:30.538Z,20.06
2023-08-15T02:20:57.363Z,19.78
2023-08-15T02:23:24.479Z,19.82
2023-08-15T02:25:51.305Z,19.52
2023-08-15T02:28:18.846Z,19.68
2023-08-15T02:30:45.710Z,19.42
2023-08-15T02:33:12.746Z,19.28
2023-08-15T02:35:42.002Z,19.60
2023-08-15T02:38:09.316Z,19.40
2023-08-15T02:40:38.270Z,19.44
2023-08-15T02:43:05.061Z,19.13
2023-08-15T02:45:31.943Z,19.27
2023-08-15T02:47:58.854Z,19.13
2023-08-15T02:50:25.903Z,19.21
2023-08-15T02:52:52.824Z,19.08
2023-08-15T02:55:19.793Z,19.14
2023-08-15T02:57:46.801Z,19.19
2023-08-15T03:00:14.063Z,18.97
2023-08-15T03:02:42.344Z,19.08
2023-08-15T03:05:09.473Z,19.13
2023-08-15T03:07:36.447Z,19.03
2023-08-15T03:10:04.829Z,19.19
2023-08-15T03:12:31.754Z,18.94
2023-08-15T03:14:59.069Z,19.10
2023-08-15T03:17:26.470Z,19.09
2023-08-15T03:19:56.677Z,19.05
2023-08-15T03:22:23.556Z,19.28
2023-08-15T03:24:50.652Z,19.16
2023-08-15T03:27:17.522Z,19.16
2023-08-15T03:29:44.349Z,19.25
2023-08-15T03:32:11.626Z,19.31
2023-08-15T03:34:39.147Z,19.03
2023-08-15T03:37:06.167Z,19.17
2023-08-15T03:39:33.021Z,18.99
2023-08-15T03:41:59.916Z,19.02
2023-08-15T03:44:26.788Z,18.99
2023-08-15T03:46:53.730Z,18.95
2023-08-15T03:49:20.674Z,18.95
2023-08-15T03:51:47.909Z,18.86
2023-08-15T03:54:17.629Z,18.91
2023-08-15T03:56:45.504Z,19.02
2023-08-15T03:59:12.723Z,19.03
2023-08-15T04:01:39.622Z,19.05
2023-08-15T04:04:07.204Z,18.95
2023-08-15T04:06:34.129Z,18.83
2023-08-15T04:09:00.988Z,18.88
2023-08-15T04:11:27.855Z,19.06
2023-08-15T04:13:54.632Z,18.94
2023-08-15T04:16:22.807Z,18.82
2023-08-15T04:18:49.747Z,18.76
2023-08-15T04:21:16.993Z,18.77
2023-08-15T04:23:43.801Z,18.71
2023-08-15T04:26:11.659Z,18.64
2023-08-15T04:28:38.768Z,18.68
2023-08-15T04:31:05.600Z,18.79
2023-08-15T04:33:32.692Z,18.90
2023-08-15T04:35:59.546Z,18.82
2023-08-15T04:38:27.281Z,18.86
2023-08-15T04:40:55.129Z,18.80
2023-08-15T04:43:23.417Z,18.86
2023-08-15T04:45:50.236Z,18.92
2023-08-15T04:48:17.264Z,18.97
2023-08-15T04:50:44.106Z,19.17
2023-08-15T04:53:12.090Z,19.11
2023-08-15T04:55:39.152Z,19.23
2023-08-15T04:58:10.389Z,19.27
2023-08-15T05:00:37.577Z,19.21
2023-08-15T05:03:05.627Z,19.50
2023-08-15T05:05:32.886Z,19.41
2023-08-15T05:08:00.050Z,19.25
2023-08-15T05:10:27.172Z,19.31
2023-08-15T05:12:54.457Z,19.50
2023-08-15T05:15:21.334Z,19.71
2023-08-15T05:17:49.584Z,19.62
2023-08-15T05:20:17.392Z,19.63
2023-08-15T05:22:45.864Z,19.59
2023-08-15T05:25:12.685Z,19.67
2023-08-15T05:27:46.126Z,19.75
2023-08-15T05:30:13.423Z,19.89
2023-08-15T05:32:40.571Z,19.89
2023-08-15T05:35:07.870Z,20.01
2023-08-15T05:37:34.917Z,19.94
2023-08-15T05:40:04.611Z,20.06
2023-08-15T05:42:32.411Z,20.10
2023-08-15T05:44:59.182Z,20.25
2023-08-15T05:47:26.013Z,20.26
2023-08-15T05:49:52.826Z,20.23
2023-08-15T05:52:19.627Z,20.27
2023-08-15T05:54:46.377Z,20.27
2023-08-15T05:57:13.201Z,20.44
2023-08-15T05:59:39.976Z,20.43
2023-08-15T06:02:06.864Z,20.85
2023-08-15T06:04:33.641Z,21.19
2023-08-15T06:07:00.505Z,21.39
2023-08-15T06:09:28.376Z,21.51
2023-08-15T06:11:55.488Z,21.99
2023-08-15T06:14:22.583Z,22.11
2023-08-15T06:16:49.744Z,22.18
2023-08-15T06:19:17.211Z,22.39
2023-08-15T06:21:44.180Z,22.22
2023-08-15T06:24:14.713Z,22.21
2023-08-15T06:26:41.873Z,22.36
2023-08-15T06:29:09.147Z,22.28
2023-08-15T06:31:37.038Z,21.92
2023-08-15T06:34:04.283Z,21.86
2023-08-15T06:36:32.487Z,22.02
2023-08-15T06:38:59.364Z,21.96
2023-08-15T06:41:26.150Z,22.00
2023-08-15T06:43:54.382Z,22.04
2023-08-15T06:46:21.201Z,22.10
2023-08-15T06:48:48.009Z,22.20
2023-08-15T06:51:15.011Z,22.36
2023-08-15T06:53:45.565Z,22.78
2023-08-15T06:56:12.611Z,22.71
2023-08-15T06:58:39.832Z,22.98
2023-08-15T07:01:07.538Z,23.01
2023-08-15T07:03:35.016Z,23.05
2023-08-15T07:06:02.112Z,23.34
2023-08-15T07:08:28.970Z,23.38
2023-08-15T07:10:57.773Z,23.72
2023-08-15T07:13:24.866Z,24.00
2023-08-15T07:15:58.047Z,24.57
2023-08-15T07:18:25.498Z,24.67
2023-08-15T07:20:53.358Z,24.41
2023-08-15T07:23:21.708Z,24.53
2023-08-15T07:25:48.789Z,24.62
2023-08-15T07:28:15.647Z,24.73
2023-08-15T07:30:46.605Z,24.79
2023-08-15T07:33:15.180Z,24.75
2023-08-15T07:35:42.864Z,24.89
2023-08-15T07:38:10.005Z,25.28
2023-08-15T07:40:36.941Z,25.77
2023-08-15T07:43:03.805Z,26.09
2023-08-15T07:45:30.801Z,26.64
2023-08-15T07:47:59.545Z,26.87
2023-08-15T07:50:28.954Z,27.27
2023-08-15T07:52:59.591Z,27.83
2023-08-15T07:55:29.770Z,27.85
2023-08-15T07:57:58.662Z,27.98
2023-08-15T08:00:25.587Z,27.73
2023-08-15T08:02:53.639Z,27.21
2023-08-15T08:05:22.928Z,26.68
2023-08-15T08:07:50.299Z,26.40
2023-08-15T08:10:17.244Z,26.06
2023-08-15T08:12:44.041Z,26.01
2023-08-15T08:15:11.014Z,26.20
2023-08-15T08:17:37.915Z,26.40
2023-08-15T08:20:11.000Z,26.99
2023-08-15T08:22:37.974Z,28.02
2023-08-15T08:25:20.441Z,28.51
2023-08-15T08:27:47.942Z,28.89
2023-08-15T08:30:17.690Z,28.71
2023-08-15T08:32:44.662Z,28.00
2023-08-15T08:35:12.484Z,27.61
2023-08-15T08:37:39.259Z,27.37
2023-08-15T08:40:06.966Z,27.56
2023-08-15T08:42:35.333Z,27.45
2023-08-15T08:45:07.325Z,27.63
2023-08-15T08:47:34.781Z,27.58
2023-08-15T08:50:02.188Z,27.55
2023-08-15T08:52:29.424Z,27.35
2023-08-15T08:54:57.742Z,27.36
2023-08-15T08:57:28.863Z,27.71
2023-08-15T08:59:58.129Z,28.10
2023-08-15T09:02:25.043Z,28.47
2023-08-15T09:04:53.701Z,28.28
2023-08-15T09:07:20.716Z,28.45
2023-08-15T09:09:47.786Z,28.99
2023-08-15T09:12:37.661Z,29.13
2023-08-15T09:15:11.591Z,29.16
2023-08-15T09:17:39.634Z,28.79
2023-08-15T09:20:19.559Z,28.58
2023-08-15T09:22:48.082Z,28.05
2023-08-15T09:25:17.009Z,27.94
2023-08-15T09:27:44.778Z,27.73
2023-08-15T09:30:14.255Z,27.46
2023-08-15T09:32:42.268Z,27.48
2023-08-15T09:35:11.042Z,27.49
2023-08-15T09:37:45.492Z,27.35
2023-08-15T09:40:20.314Z,27.31
2023-08-15T09:42:47.317Z,26.96
2023-08-15T09:45:15.336Z,27.10
2023-08-15T09:47:43.469Z,27.20
2023-08-15T09:50:12.138Z,27.18
2023-08-15T09:52:41.202Z,27.11
2023-08-15T09:55:15.459Z,26.94
2023-08-15T09:57:44.331Z,26.97
2023-08-15T10:00:13.685Z,26.91
2023-08-15T10:02:49.553Z,26.95
2023-08-15T10:05:22.268Z,26.99
2023-08-15T10:07:50.542Z,26.95
2023-08-15T10:10:19.242Z,26.91
2023-08-15T10:12:48.249Z,26.94
2023-08-15T10:15:15.832Z,26.93
2023-08-15T10:17:42.994Z,26.66
2023-08-15T10:20:13.503Z,26.77
2023-08-15T10:22:41.063Z,26.66
2023-08-15T10:25:37.218Z,26.95
2023-08-15T10:28:13.634Z,27.08
2023-08-15T10:30:51.754Z,27.16
2023-08-15T10:33:22.483Z,27.31
2023-08-15T10:36:09.299Z,27.27
2023-08-15T10:38:44.955Z,27.19
2023-08-15T10:41:17.497Z,27.07
2023-08-15T10:43:53.410Z,27.13
2023-08-15T10:46:26.846Z,26.99
2023-08-15T10:49:03.668Z,26.78
2023-08-15T10:51:33.793Z,26.65
2023-08-15T10:54:05.623Z,26.53
2023-08-15T10:56:37.343Z,26.41
2023-08-15T10:59:08.133Z,26.33
2023-08-15T11:01:37.312Z,26.18
2023-08-15T11:04:04.971Z,26.09
2023-08-15T11:06:32.012Z,25.92
2023-08-15T11:09:00.046Z,25.92
2023-08-15T11:11:27.199Z,25.88
2023-08-15T11:13:55.240Z,25.79
2023-08-15T11:16:23.963Z,25.66
2023-08-15T11:18:51.380Z,25.61
2023-08-15T11:21:19.553Z,25.59
2023-08-15T11:23:48.477Z,25.56
2023-08-15T11:26:17.281Z,25.51
2023-08-15T11:28:44.225Z,25.58
2023-08-15T11:33:43.741Z,25.63
2023-08-15T11:36:13.729Z,25.65
2023-08-15T11:38:40.860Z,25.67
2023-08-15T11:41:07.685Z,25.70
2023-08-15T11:43:34.966Z,25.55
2023-08-15T11:46:03.160Z,25.74
2023-08-15T11:48:31.741Z,25.78
2023-08-15T11:50:58.998Z,25.67
2023-08-15T11:53:26.009Z,25.76
2023-08-15T11:55:53.792Z,25.77
2023-08-15T11:58:27.763Z,25.77
2023-08-15T12:00:58.552Z,25.66
2023-08-15T12:03:27.153Z,25.75
2023-08-15T12:06:00.298Z,25.60
2023-08-15T12:08:28.468Z,25.81
2023-08-15T12:10:59.496Z,25.77
2023-08-15T12:13:33.745Z,25.74
2023-08-15T12:16:04.781Z,25.86
2023-08-15T12:18:32.659Z,25.92
2023-08-15T12:21:00.471Z,25.98
2023-08-15T12:23:29.053Z,26.07
2023-08-15T12:25:56.342Z,25.99
2023-08-15T12:28:23.225Z,26.23
2023-08-15T12:30:50.973Z,26.32
2023-08-15T12:33:27.607Z,26.45
2023-08-15T12:36:04.835Z,26.64
2023-08-15T12:38:31.581Z,26.67
2023-08-15T12:40:58.399Z,26.88
2023-08-15T12:43:25.140Z,27.08
2023-08-15T12:45:51.957Z,27.37
2023-08-15T12:48:18.843Z,28.22
2023-08-15T12:50:45.676Z,28.99
2023-08-15T12:53:12.585Z,29.40
2023-08-15T12:55:39.408Z,29.45
2023-08-15T12:58:06.341Z,29.15
2023-08-15T13:00:33.201Z,28.61
2023-08-15T13:03:00.392Z,28.14
2023-08-15T13:05:27.571Z,27.82
2023-08-15T13:07:54.879Z,27.75
2023-08-15T13:10:22.457Z,27.44
2023-08-15T13:12:49.247Z,27.40
2023-08-15T13:15:16.012Z,27.30
2023-08-15T13:17:44.376Z,27.34
2023-08-15T13:20:13.963Z,27.26
2023-08-15T13:22:40.948Z,27.23
2023-08-15T13:25:08.352Z,27.21
2023-08-15T13:27:35.424Z,27.20
2023-08-15T13:30:02.190Z,27.19
2023-08-15T13:32:29.005Z,27.21
2023-08-15T13:34:56.057Z,27.39
2023-08-15T13:37:22.907Z,27.56
2023-08-15T13:39:49.623Z,28.11
2023-08-15T13:42:30.821Z,28.23
2023-08-15T13:45:05.945Z,28.47
2023-08-15T13:47:34.641Z,29.05
2023-08-15T13:50:02.622Z,29.50
2023-08-15T13:52:29.787Z,29.52
2023-08-15T13:54:56.655Z,29.79
2023-08-15T13:57:23.931Z,29.97
2023-08-15T13:59:50.991Z,30.12
2023-08-15T14:02:17.816Z,30.35
2023-08-15T14:04:45.027Z,30.45
2023-08-15T14:07:11.746Z,30.41
2023-08-15T14:09:38.491Z,30.44
2023-08-15T14:12:05.478Z,30.40
2023-08-15T14:14:32.152Z,30.35
2023-08-15T14:16:58.894Z,30.31
2023-08-15T14:19:25.831Z,30.24
2023-08-15T14:21:52.742Z,30.12
2023-08-15T14:24:19.514Z,30.05
2023-08-15T14:26:46.221Z,29.98
2023-08-15T14:29:13.490Z,29.95
2023-08-15T14:31:40.247Z,29.99
2023-08-15T14:34:07.010Z,29.95
2023-08-15T14:36:33.865Z,29.89
2023-08-15T14:39:00.622Z,29.85
2023-08-15T14:41:27.368Z,29.89
2023-08-15T14:43:54.388Z,29.75
2023-08-15T14:46:21.198Z,29.81
2023-08-15T14:48:48.037Z,29.85
2023-08-15T14:51:14.731Z,29.92
2023-08-15T14:53:41.512Z,29.98
2023-08-15T14:56:08.243Z,30.05
2023-08-15T14:58:34.922Z,30.02
2023-08-15T15:01:01.668Z,30.04
2023-08-15T15:03:28.481Z,30.03
2023-08-15T15:05:55.256Z,29.99
2023-08-15T15:08:22.322Z,30.00
2023-08-15T15:10:53.512Z,29.83
2023-08-15T15:13:20.232Z,29.63
2023-08-15T15:18:18.545Z,29.49
2023-08-15T15:20:45.560Z,29.35
2023-08-15T15:23:12.425Z,29.20
2023-08-15T15:25:39.184Z,29.07
2023-08-15T15:28:06.158Z,28.95
2023-08-15T15:30:32.869Z,28.93
2023-08-15T15:32:59.675Z,28.91
2023-08-15T15:35:26.461Z,28.71
2023-08-15T15:37:53.171Z,28.52
2023-08-15T15:40:19.876Z,28.32
2023-08-15T15:42:47.073Z,28.26
2023-08-15T15:45:13.813Z,28.29
2023-08-15T15:47:40.757Z,28.25
2023-08-15T15:50:07.945Z,28.23
2023-08-15T15:52:34.714Z,28.19
2023-08-15T15:55:01.488Z,28.11
2023-08-15T15:57:28.230Z,28.07
2023-08-15T15:59:54.951Z,27.98
2023-08-15T16:02:22.169Z,27.91
2023-08-15T16:04:50.313Z,27.83
2023-08-15T16:07:17.642Z,27.76
2023-08-15T16:09:45.910Z,27.66
2023-08-15T16:12:12.744Z,27.51
2023-08-15T16:14:39.443Z,27.45
2023-08-15T16:17:06.181Z,27.35
2023-08-15T16:19:32.939Z,27.33
2023-08-15T16:21:59.677Z,27.35
2023-08-15T16:24:26.418Z,27.25
2023-08-15T16:26:53.133Z,27.17
2023-08-15T16:29:20.266Z,27.12
2023-08-15T16:31:47.087Z,27.09
2023-08-15T16:34:13.885Z,26.91
2023-08-15T16:36:40.613Z,26.69
2023-08-15T16:39:07.486Z,26.55
2023-08-15T16:41:34.220Z,26.45
2023-08-15T16:44:01.084Z,26.40
2023-08-15T16:46:27.947Z,26.40
2023-08-15T16:48:54.866Z,26.51
2023-08-15T16:51:22.187Z,26.60
2023-08-15T16:53:49.183Z,26.64
2023-08-15T16:56:17.235Z,26.67
2023-08-15T16:58:45.984Z,26.68
2023-08-15T17:01:14.060Z,26.59
2023-08-15T17:03:40.982Z,26.49
2023-08-15T17:06:08.028Z,26.45
2023-08-15T17:08:34.763Z,26.37
2023-08-15T17:11:01.489Z,26.22
2023-08-15T17:13:28.245Z,26.15
2023-08-15T17:15:55.188Z,26.11
2023-08-15T17:18:21.918Z,26.00
2023-08-15T17:20:48.617Z,25.89
2023-08-15T17:23:15.416Z,25.81
2023-08-15T17:25:42.134Z,25.77
2023-08-15T17:28:08.902Z,25.66
2023-08-15T17:30:35.700Z,25.55
2023-08-15T17:33:02.581Z,25.51
2023-08-15T17:35:29.355Z,25.46
2023-08-15T17:37:56.133Z,25.37
2023-08-15T17:40:22.884Z,25.36
2023-08-15T17:42:49.645Z,25.29
2023-08-15T17:45:16.475Z,25.24
2023-08-15T17:47:43.240Z,25.22
2023-08-15T17:50:10.354Z,25.20
2023-08-15T17:52:38.156Z,25.16
2023-08-15T17:55:06.262Z,25.04
2023-08-15T17:57:32.956Z,24.90
2023-08-15T17:59:59.811Z,24.79
2023-08-15T18:02:26.598Z,24.67
2023-08-15T18:04:53.369Z,24.60
2023-08-15T18:07:20.121Z,24.60
2023-08-15T18:09:46.869Z,24.55
2023-08-15T18:12:13.595Z,24.44
2023-08-15T18:14:42.556Z,24.35
2023-08-15T18:17:09.361Z,24.24
2023-08-15T18:19:36.248Z,24.11
2023-08-15T18:22:02.969Z,24.04
2023-08-15T18:24:30.044Z,24.02
2023-08-15T18:26:56.899Z,24.00
2023-08-15T18:29:23.841Z,23.98
2023-08-15T18:31:50.569Z,23.92
2023-08-15T18:34:17.328Z,23.88
2023-08-15T18:36:44.055Z,23.80
2023-08-15T18:39:11.340Z,23.69
2023-08-15T18:41:38.083Z,23.64
2023-08-15T18:44:07.307Z,23.54
2023-08-15T18:46:34.496Z,23.45
2023-08-15T18:49:01.200Z,23.38
2023-08-15T18:51:27.924Z,23.30
2023-08-15T18:53:55.991Z,23.28
2023-08-15T18:56:23.818Z,23.21
2023-08-15T18:58:50.505Z,23.14
2023-08-15T19:01:17.700Z,23.18
2023-08-15T19:03:44.707Z,23.17
2023-08-15T19:06:11.792Z,23.14
2023-08-15T19:08:38.494Z,23.07
2023-08-15T19:11:05.353Z,23.04
2023-08-15T19:13:32.122Z,23.03
2023-08-15T19:15:58.986Z,22.96
2023-08-15T19:18:25.730Z,22.90
2023-08-15T19:20:52.406Z,22.86
2023-08-15T19:23:19.145Z,22.82
2023-08-15T19:25:46.505Z,22.80
2023-08-15T19:28:13.477Z,22.74
2023-08-15T19:30:42.771Z,22.77
2023-08-15T19:33:10.074Z,22.74
2023-08-15T19:35:36.887Z,22.66
2023-08-15T19:38:03.729Z,22.64
2023-08-15T19:40:30.506Z,22.61
2023-08-15T19:42:57.213Z,22.56
2023-08-15T19:45:24.006Z,22.51
2023-08-15T19:47:50.816Z,22.50
2023-08-15T19:50:17.519Z,22.43
2023-08-15T19:52:44.253Z,22.40
2023-08-15T19:55:11.244Z,22.38
2023-08-15T19:57:38.027Z,22.31
2023-08-15T20:00:06.065Z,22.24
2023-08-15T20:02:37.339Z,22.28
2023-08-15T20:05:04.297Z,22.22
2023-08-15T20:07:31.075Z,22.22
2023-08-15T20:10:09.718Z,22.16
2023-08-15T20:12:39.168Z,22.16
2023-08-15T20:15:06.605Z,22.15
2023-08-15T20:17:33.503Z,22.07
2023-08-15T20:20:00.591Z,21.99
2023-08-15T20:22:27.603Z,22.00
2023-08-15T20:24:57.683Z,22.09
2023-08-15T20:27:24.581Z,22.10
2023-08-15T20:29:54.325Z,22.17
2023-08-15T20:32:21.466Z,22.23
2023-08-15T20:34:48.480Z,22.30
2023-08-15T20:37:15.926Z,22.34
2023-08-15T20:39:42.813Z,22.37
2023-08-15T20:42:09.887Z,22.39
2023-08-15T20:44:36.705Z,22.38
2023-08-15T20:47:03.817Z,22.29
2023-08-15T20:49:30.592Z,22.18
2023-08-15T20:51:57.712Z,22.00
2023-08-15T20:54:24.714Z,21.93
2023-08-15T20:56:51.436Z,22.00
2023-08-15T20:59:18.192Z,22.08
2023-08-15T21:01:45.019Z,22.11
2023-08-15T21:04:11.792Z,22.11
2023-08-15T21:06:38.597Z,22.07
2023-08-15T21:09:05.523Z,22.01
2023-08-15T21:11:32.292Z,21.92
2023-08-15T21:13:59.148Z,21.85
2023-08-15T21:16:25.918Z,21.81
2023-08-15T21:18:52.813Z,21.75
2023-08-15T21:21:19.826Z,21.71
2023-08-15T21:23:46.541Z,21.60
2023-08-15T21:26:13.565Z,21.46
2023-08-15T21:28:40.303Z,21.35
2023-08-15T21:31:07.562Z,21.27
2023-08-15T21:33:34.371Z,21.29
2023-08-15T21:36:01.475Z,21.27
2023-08-15T21:38:28.305Z,21.22
2023-08-15T21:40:55.360Z,21.26
2023-08-15T21:43:22.130Z,21.24
2023-08-15T21:45:49.212Z,21.20
2023-08-15T21:48:16.121Z,21.24
2023-08-15T21:50:42.829Z,21.22
2023-08-15T21:53:09.668Z,21.25
2023-08-15T21:55:36.565Z,21.27
2023-08-15T21:58:03.456Z,21.25
2023-08-15T22:00:30.289Z,21.20
2023-08-15T22:02:59.960Z,21.15
2023-08-15T22:05:27.291Z,21.06
2023-08-15T22:07:54.238Z,21.00
2023-08-15T22:10:24.413Z,20.88
2023-08-15T22:12:51.681Z,20.76
2023-08-15T22:15:19.716Z,20.58
2023-08-15T22:17:54.822Z,20.55
2023-08-15T22:20:31.665Z,20.57
2023-08-15T22:22:58.428Z,20.62
2023-08-15T22:25:25.268Z,20.68
2023-08-15T22:27:52.145Z,20.75
2023-08-15T22:30:19.040Z,20.72
2023-08-15T22:32:45.792Z,20.62
2023-08-15T22:35:12.642Z,20.54
2023-08-15T22:37:39.779Z,20.52
2023-08-15T22:40:07.211Z,20.43
2023-08-15T22:42:34.167Z,20.41
2023-08-15T22:45:01.037Z,20.47
2023-08-15T22:47:27.899Z,20.55
2023-08-15T22:49:54.656Z,20.55
2023-08-15T22:52:21.471Z,20.40
2023-08-15T22:54:48.320Z,20.27
2023-08-15T22:57:15.310Z,20.15
2023-08-15T22:59:42.160Z,19.94
2023-08-15T23:02:09.041Z,19.87
2023-08-15T23:04:35.970Z,19.86
2023-08-15T23:07:02.989Z,19.85
2023-08-15T23:09:29.922Z,19.81
2023-08-15T23:11:56.826Z,19.75
2023-08-15T23:14:23.744Z,19.74
2023-08-15T23:16:50.581Z,19.73
2023-08-15T23:19:17.638Z,19.68
2023-08-15T23:21:44.771Z,19.64
2023-08-15T23:24:11.625Z,19.60
2023-08-15T23:26:38.647Z,19.47
2023-08-15T23:29:05.763Z,19.38
2023-08-15T23:31:34.268Z,19.35
2023-08-15T23:34:06.262Z,19.37
2023-08-15T23:36:34.383Z,19.40
2023-08-15T23:39:02.586Z,19.44
2023-08-15T23:41:29.544Z,19.49
2023-08-15T23:43:56.599Z,19.45
2023-08-15T23:46:25.900Z,19.50
2023-08-15T23:48:52.854Z,19.54
2023-08-15T23:51:19.973Z,19.46
2023-08-15T23:53:48.692Z,19.36
2023-08-15T23:56:16.227Z,19.36
2023-08-15T23:58:46.143Z,19.26
